Time;durP1;ratioP1;P1;durP2;ratioP2;P2;SDS_P1;SDS_P2;PMS_P1;PMS_P2;Temp;Humidity;BMP_temperature;BMP_pressure;BME280_temperature;BME280_humidity;BME280_pressure;Samples;Min_cycle;Max_cycle;Signal;HPM_P1;HPM_P2
2022/06/10 00:02:20;;;;;;;4.30;1.80;;;;;;;12.31;86.54;101313.95;107755;1278;73024;-83
2022/06/10 00:04:46;;;;;;;4.80;2.10;;;;;;;12.27;86.40;101316.52;107834;1279;62039;-83
2022/06/10 00:07:13;;;;;;;3.90;1.80;;;;;;;12.23;86.75;101316.73;107855;1279;59279;-84
2022/06/10 00:09:40;;;;;;;4.40;1.80;;;;;;;12.19;87.02;101314.92;107741;1278;75102;-83
2022/06/10 00:12:10;;;;;;;4.40;1.80;;;;;;;12.16;87.30;101317.52;107780;1279;72242;-82
2022/06/10 00:14:37;;;;;;;3.00;1.80;;;;;;;12.13;87.40;101314.50;107737;1279;73320;-83
2022/06/10 00:17:04;;;;;;;4.20;1.50;;;;;;;12.09;87.59;101314.95;107639;1279;62802;-82
2022/06/10 00:19:32;;;;;;;5.40;1.90;;;;;;;12.06;87.73;101315.27;107597;1279;60372;-82
2022/06/10 00:22:00;;;;;;;3.00;2.20;;;;;;;12.03;87.87;101321.30;107634;1279;75122;-82
2022/06/10 00:24:27;;;;;;;4.80;2.20;;;;;;;12.01;88.33;101325.06;107727;1278;72482;-83
2022/06/10 00:26:54;;;;;;;6.80;2.20;;;;;;;11.99;88.30;101324.05;107855;1278;73413;-83
2022/06/10 00:29:21;;;;;;;3.10;1.70;;;;;;;11.97;88.41;101330.05;107589;1279;62347;-83
2022/06/10 00:31:48;;;;;;;5.10;1.90;;;;;;;11.95;88.28;101328.52;107859;1279;60657;-83
2022/06/10 00:34:15;;;;;;;5.40;2.30;;;;;;;11.93;88.37;101334.25;107609;1279;76076;-84
2022/06/10 00:36:42;;;;;;;6.80;2.00;;;;;;;11.91;88.47;101333.58;107809;1279;71630;-83
2022/06/10 00:39:08;;;;;;;4.60;1.80;;;;;;;11.89;88.52;101333.25;107754;1279;72929;-83
2022/06/10 00:41:39;;;;;;;4.20;2.10;;;;;;;11.89;88.50;101334.19;107729;1278;62725;-83
2022/06/10 00:44:34;;;;;;;7.60;2.10;;;;;;;11.89;88.61;101334.35;107575;1279;61480;-83
2022/06/10 00:47:21;;;;;;;7.00;2.00;;;;;;;11.88;88.54;101335.13;107842;1278;75461;-83
2022/06/10 00:49:56;;;;;;;3.90;1.60;;;;;;;11.87;88.26;101337.22;107604;1278;71340;-82
2022/06/10 00:52:31;;;;;;;4.10;1.70;;;;;;;11.83;88.14;101339.84;107804;1279;73022;-82
2022/06/10 00:54:58;;;;;;;4.30;1.90;;;;;;;11.79;88.01;101343.17;107613;1279;62217;-83
2022/06/10 00:57:38;;;;;;;4.40;2.00;;;;;;;11.76;87.97;101347.95;107673;1279;61234;-83
2022/06/10 01:00:10;;;;;;;6.00;2.30;;;;;;;11.71;88.03;101349.23;107806;1279;75256;-83
2022/06/10 01:02:38;;;;;;;4.50;1.70;;;;;;;11.66;87.94;101352.42;107583;1279;70339;-83
2022/06/10 01:05:18;;;;;;;6.50;3.10;;;;;;;11.61;88.15;101359.98;107861;1277;73294;-83
2022/06/10 01:08:04;;;;;;;3.80;1.90;;;;;;;11.56;88.11;101358.44;107702;1279;62318;-83
2022/06/10 01:10:46;;;;;;;3.50;1.60;;;;;;;11.51;88.23;101358.65;107852;1278;61528;-83
2022/06/10 01:13:28;;;;;;;2.70;1.20;;;;;;;11.45;88.43;101355.05;107923;1278;74231;-82
2022/06/10 01:16:13;;;;;;;3.50;1.80;;;;;;;11.39;88.64;101352.39;107631;1279;71039;-82
2022/06/10 01:19:04;;;;;;;4.10;1.70;;;;;;;11.33;88.81;101348.63;107677;1280;72876;-82
2022/06/10 01:21:53;;;;;;;3.20;1.70;;;;;;;11.26;89.10;101351.33;107417;1280;62803;-82
2022/06/10 01:24:51;;;;;;;5.10;1.70;;;;;;;11.20;89.36;101356.58;107753;1279;61701;-83
2022/06/10 01:27:57;;;;;;;6.50;1.90;;;;;;;11.15;89.61;101363.85;107623;1279;77686;-84
2022/06/10 01:30:58;;;;;;;4.50;1.50;;;;;;;11.10;89.83;101361.75;107799;1278;70342;-83
2022/06/10 01:34:01;;;;;;;5.20;1.80;;;;;;;11.04;90.19;101363.30;107791;1278;74505;-83
2022/06/10 01:36:35;;;;;;;6.10;2.40;;;;;;;10.98;90.47;101362.98;107712;1277;62301;-83
2022/06/10 01:39:08;;;;;;;3.50;1.70;;;;;;;10.94;90.87;101366.88;107772;1278;60298;-82
2022/06/10 01:41:38;;;;;;;4.40;1.90;;;;;;;10.91;91.00;101364.79;107606;1279;74936;-84
2022/06/10 01:44:27;;;;;;;3.10;1.70;;;;;;;10.87;90.87;101371.02;107650;1278;71614;-83
2022/06/10 01:47:32;;;;;;;2.60;1.60;;;;;;;10.82;91.00;101368.70;107894;1278;74302;-83
2022/06/10 01:50:08;;;;;;;3.00;1.90;;;;;;;10.79;91.36;101369.38;107658;1278;63370;-83
2022/06/10 01:53:00;;;;;;;3.30;1.80;;;;;;;10.76;91.50;101369.34;107753;1278;61588;-83
2022/06/10 01:55:36;;;;;;;2.90;1.40;;;;;;;10.74;91.44;101372.77;107839;1277;75075;-83
2022/06/10 01:58:13;;;;;;;3.80;1.50;;;;;;;10.72;91.75;101375.82;107806;1278;71465;-83
2022/06/10 02:00:45;;;;;;;4.80;1.90;;;;;;;10.71;91.89;101373.25;107833;1279;72072;-84
2022/06/10 02:03:21;;;;;;;5.10;1.80;;;;;;;10.69;91.90;101376.44;107690;1279;62345;-83
2022/06/10 02:05:58;;;;;;;3.60;1.60;;;;;;;10.68;91.93;101377.28;107686;1279;59678;-84
2022/06/10 02:08:37;;;;;;;4.70;1.90;;;;;;;10.66;92.33;101375.65;107763;1279;75038;-84
2022/06/10 02:11:15;;;;;;;2.10;1.10;;;;;;;10.66;92.40;101378.54;107688;1278;72727;-83
2022/06/10 02:13:54;;;;;;;3.50;1.60;;;;;;;10.66;92.50;101377.31;107853;1277;74671;-83
2022/06/10 02:16:26;;;;;;;4.80;1.70;;;;;;;10.66;92.75;101377.81;107696;1279;63308;-83
2022/06/10 02:19:17;;;;;;;4.80;1.60;;;;;;;10.65;92.62;101377.17;107865;1277;60712;-84
2022/06/10 02:21:57;;;;;;;3.70;1.40;;;;;;;10.65;93.00;101376.38;107801;1277;74878;-82
2022/06/10 02:24:39;;;;;;;2.90;1.70;;;;;;;10.64;92.86;101382.94;107761;1279;72269;-83
2022/06/10 02:27:23;;;;;;;5.60;1.70;;;;;;;10.62;93.26;101387.91;107768;1279;72940;-83
2022/06/10 02:29:56;;;;;;;3.80;1.20;;;;;;;10.60;93.27;101386.74;107782;1278;62073;-82
2022/06/10 02:32:26;;;;;;;3.70;1.90;;;;;;;10.58;93.50;101391.84;108094;1279;60327;-83
2022/06/10 02:34:54;;;;;;;3.90;1.60;;;;;;;10.56;93.50;101389.94;107916;1279;74913;-83
2022/06/10 02:37:39;;;;;;;2.70;1.40;;;;;;;10.53;93.86;101389.69;108311;1279;71412;-82
2022/06/10 02:40:23;;;;;;;5.20;2.00;;;;;;;10.49;93.71;101391.53;108217;1279;73079;-82
2022/06/10 02:42:53;;;;;;;3.00;1.70;;;;;;;10.45;93.68;101397.48;108072;1279;61993;-83
2022/06/10 02:45:52;;;;;;;3.40;1.30;;;;;;;10.43;93.91;101397.76;107827;1278;60723;-83
2022/06/10 02:48:38;;;;;;;2.10;1.60;;;;;;;10.37;93.94;101393.64;107897;1278;76393;-83
2022/06/10 02:51:05;;;;;;;4.50;2.10;;;;;;;10.33;93.90;101389.28;107889;1279;70383;-83
2022/06/10 02:53:32;;;;;;;3.00;1.40;;;;;;;10.31;94.23;101392.20;107900;1279;73317;-82
2022/06/10 02:56:00;;;;;;;4.50;1.50;;;;;;;10.28;94.30;101402.13;107890;1278;62256;-82
2022/06/10 03:02:07;;;;;;;4.80;1.60;;;;;;;10.24;94.52;101407.57;108064;1278;75421;-82
2022/06/10 03:05:05;;;;;;;2.70;1.40;;;;;;;10.22;94.97;101406.30;108203;1278;71369;-82
2022/06/10 03:07:43;;;;;;;3.60;1.80;;;;;;;10.20;95.44;101401.34;108203;1278;72983;-82
2022/06/10 03:10:34;;;;;;;3.10;1.80;;;;;;;10.20;95.80;101405.23;107712;1279;62435;-84
2022/06/10 03:13:19;;;;;;;4.20;2.30;;;;;;;10.19;96.15;101409.02;107797;1277;59545;-83
2022/06/10 03:16:28;;;;;;;6.10;2.00;;;;;;;10.20;96.47;101413.21;107913;1279;75024;-83
2022/06/10 03:19:41;;;;;;;6.40;3.00;;;;;;;10.20;96.82;101422.01;107871;1278;71371;-83
2022/06/10 03:22:51;;;;;;;6.00;2.60;;;;;;;10.21;97.06;101418.77;107322;1277;74864;-83
2022/06/10 03:25:40;;;;;;;4.00;2.90;;;;;;;10.21;97.60;101417.66;107693;1279;62489;-83
2022/06/10 03:28:37;;;;;;;3.70;2.70;;;;;;;10.21;98.06;101417.98;107813;1279;60608;-83
2022/06/10 03:31:21;;;;;;;3.80;2.40;;;;;;;10.22;98.41;101417.23;107473;1278;74817;-83
2022/06/10 03:33:54;;;;;;;4.30;1.80;;;;;;;10.23;98.87;101416.98;107776;1277;72565;-83
2022/06/10 03:36:25;;;;;;;3.90;2.70;;;;;;;10.25;99.25;101418.98;108149;1278;72963;-83
2022/06/10 03:38:53;;;;;;;3.50;2.40;;;;;;;10.25;99.48;101420.67;108074;1278;62353;-83
2022/06/10 03:41:27;;;;;;;3.50;2.60;;;;;;;10.26;99.36;101420.22;107915;1278;60508;-83
2022/06/10 03:43:57;;;;;;;4.40;2.70;;;;;;;10.28;99.74;101420.04;108203;1281;74956;-83
2022/06/10 03:46:30;;;;;;;5.00;2.90;;;;;;;10.30;99.80;101425.70;108107;1277;71608;-83
2022/06/10 03:49:01;;;;;;;4.50;3.90;;;;;;;10.32;99.94;101424.77;108279;1278;73050;-83
2022/06/10 03:51:28;;;;;;;3.80;2.90;;;;;;;10.36;100.00;101430.37;108097;1280;61396;-84
2022/06/10 03:53:56;;;;;;;4.90;3.50;;;;;;;10.40;100.00;101433.37;107888;1278;59452;-83
2022/06/10 03:56:24;;;;;;;8.70;4.00;;;;;;;10.43;100.00;101432.30;107994;1278;75125;-83
2022/06/10 03:58:51;;;;;;;5.00;3.60;;;;;;;10.50;100.00;101437.62;107761;1281;71876;-83
2022/06/10 04:01:19;;;;;;;9.10;4.50;;;;;;;10.56;100.00;101439.27;107716;1279;73325;-83
2022/06/10 04:03:46;;;;;;;8.90;5.10;;;;;;;10.63;100.00;101444.27;107957;1278;63962;-82
2022/06/10 04:06:15;;;;;;;10.90;5.90;;;;;;;10.70;100.00;101438.66;107488;1280;60628;-82
2022/06/10 04:09:03;;;;;;;7.00;4.50;;;;;;;10.78;100.00;101445.88;107765;1278;74655;-82
2022/06/10 04:11:32;;;;;;;6.80;4.30;;;;;;;10.86;100.00;101451.63;107595;1278;72755;-83
2022/06/10 04:13:59;;;;;;;9.10;4.90;;;;;;;10.94;100.00;101453.09;107782;1280;74225;-83
2022/06/10 04:16:28;;;;;;;8.40;4.50;;;;;;;11.02;100.00;101451.56;107719;1278;62087;-83
2022/06/10 04:18:56;;;;;;;7.10;5.20;;;;;;;11.10;100.00;101451.30;107809;1277;61031;-83
2022/06/10 04:21:23;;;;;;;6.60;5.40;;;;;;;11.18;100.00;101455.55;107859;1280;76223;-88
2022/06/10 04:23:50;;;;;;;7.70;5.50;;;;;;;11.27;100.00;101455.17;107952;1278;70463;-87
2022/06/10 04:26:17;;;;;;;12.40;5.90;;;;;;;11.36;100.00;101459.23;107566;1281;73151;-88
2022/06/10 04:28:44;;;;;;;7.40;5.40;;;;;;;11.44;100.00;101456.20;107826;1278;64810;-88
2022/06/10 04:31:12;;;;;;;6.30;4.90;;;;;;;11.54;100.00;101462.30;107674;1277;61400;-87
2022/06/10 04:33:39;;;;;;;10.90;5.30;;;;;;;11.63;100.00;101464.82;107816;1280;75019;-87
2022/06/10 04:36:07;;;;;;;6.90;4.80;;;;;;;11.72;100.00;101466.52;107998;1277;71651;-86
2022/06/10 04:38:34;;;;;;;9.10;5.80;;;;;;;11.82;100.00;101470.45;107836;1280;73150;-87
2022/06/10 04:41:05;;;;;;;8.80;6.00;;;;;;;11.92;100.00;101469.98;107679;1278;63321;-87
2022/06/10 04:43:33;;;;;;;10.60;5.60;;;;;;;12.02;100.00;101469.45;107603;1281;61040;-87
2022/06/10 04:46:05;;;;;;;12.30;6.10;;;;;;;12.13;100.00;101468.22;107910;1279;76389;-87
2022/06/10 04:48:32;;;;;;;11.70;7.10;;;;;;;12.24;100.00;101475.01;107907;1280;71738;-87
2022/06/10 04:50:59;;;;;;;11.40;6.90;;;;;;;12.35;100.00;101476.14;107832;1280;73470;-87
2022/06/10 04:53:26;;;;;;;10.00;6.60;;;;;;;12.46;100.00;101476.89;108052;1277;62974;-87
2022/06/10 04:55:54;;;;;;;13.10;7.00;;;;;;;12.56;100.00;101482.48;107724;1281;59934;-87
2022/06/10 04:58:21;;;;;;;10.30;7.10;;;;;;;12.68;100.00;101485.65;107612;1278;75124;-87
2022/06/10 05:00:49;;;;;;;12.20;7.10;;;;;;;12.79;100.00;101488.21;107543;1278;71293;-87
2022/06/10 05:03:17;;;;;;;12.60;7.10;;;;;;;12.89;100.00;101485.09;107813;1281;71946;-87
2022/06/10 05:05:43;;;;;;;10.70;6.80;;;;;;;12.99;100.00;101489.27;107418;1280;63117;-87
2022/06/10 05:08:13;;;;;;;9.90;6.50;;;;;;;13.10;99.85;101491.16;107805;1277;60662;-87
2022/06/10 05:10:40;;;;;;;6.90;5.70;;;;;;;13.21;99.65;101490.88;107759;1281;75991;-86
2022/06/10 05:13:07;;;;;;;11.10;6.90;;;;;;;13.33;99.40;101488.36;107732;1280;71443;-87
2022/06/10 05:15:34;;;;;;;12.20;7.60;;;;;;;13.44;98.41;101494.27;107279;1281;72998;-87
2022/06/10 05:18:01;;;;;;;11.70;6.80;;;;;;;13.55;98.16;101490.67;107888;1281;62304;-87
2022/06/10 05:20:33;;;;;;;11.10;6.30;;;;;;;13.66;97.69;101484.98;107764;1277;60643;-87
2022/06/10 05:23:02;;;;;;;12.50;7.80;;;;;;;13.78;97.19;101483.22;107775;1281;74981;-86
2022/06/10 05:25:30;;;;;;;9.90;6.70;;;;;;;13.90;96.72;101483.67;107831;1278;72542;-88
2022/06/10 05:27:57;;;;;;;11.50;7.20;;;;;;;14.01;96.20;101488.39;107591;1277;72084;-87
2022/06/10 05:30:26;;;;;;;10.20;8.10;;;;;;;14.14;95.49;101489.27;107085;1279;62092;-87
2022/06/10 05:32:53;;;;;;;10.90;6.80;;;;;;;14.25;95.07;101489.67;107815;1277;61075;-87
2022/06/10 05:35:20;;;;;;;9.00;5.70;;;;;;;14.37;94.52;101490.81;107758;1277;76319;-87
2022/06/10 05:37:48;;;;;;;11.80;8.10;;;;;;;14.49;94.20;101494.60;107883;1277;71436;-87
2022/06/10 05:40:21;;;;;;;11.30;6.50;;;;;;;14.60;93.92;101494.89;107733;1277;74538;-87
2022/06/10 05:42:49;;;;;;;8.40;5.50;;;;;;;14.73;93.23;101494.80;107748;1278;62315;-87
2022/06/10 05:45:19;;;;;;;9.20;6.40;;;;;;;14.83;92.59;101497.58;107897;1277;60595;-88
2022/06/10 05:47:49;;;;;;;10.50;6.80;;;;;;;14.91;91.36;101500.12;107303;1277;74005;-87
2022/06/10 05:50:23;;;;;;;10.30;6.70;;;;;;;15.00;91.01;101500.69;107585;1279;71519;-87
2022/06/10 05:52:50;;;;;;;10.10;6.40;;;;;;;15.09;89.98;101496.34;107871;1277;73309;-87
2022/06/10 05:55:18;;;;;;;14.70;6.50;;;;;;;15.18;89.69;101497.64;107692;1278;62229;-88
2022/06/10 05:57:46;;;;;;;11.10;7.50;;;;;;;15.24;88.66;101497.27;107952;1277;60654;-87
2022/06/10 06:00:21;;;;;;;9.60;7.20;;;;;;;15.28;88.19;101499.71;107359;1279;76646;-87
2022/06/10 06:02:48;;;;;;;9.10;6.60;;;;;;;15.35;88.01;101501.02;107800;1277;70513;-87
2022/06/10 06:05:31;;;;;;;15.10;8.30;;;;;;;15.45;87.96;101504.60;107896;1279;72670;-87
2022/06/10 06:07:58;;;;;;;10.10;6.50;;;;;;;15.54;87.28;101506.58;107736;1279;62272;-87
2022/06/10 06:10:27;;;;;;;10.50;6.60;;;;;;;15.63;86.88;101506.99;107746;1280;61263;-87
2022/06/10 06:12:55;;;;;;;13.30;7.30;;;;;;;15.73;86.60;101512.82;107523;1281;76038;-87
2022/06/10 06:15:22;;;;;;;11.50;7.40;;;;;;;15.84;86.25;101506.51;107878;1279;71536;-87
2022/06/10 06:17:50;;;;;;;12.80;7.00;;;;;;;15.94;85.88;101508.64;107869;1277;76087;-87
2022/06/10 06:20:20;;;;;;;10.90;7.10;;;;;;;16.04;85.17;101514.42;107401;1281;64021;-87
2022/06/10 06:22:47;;;;;;;13.70;7.90;;;;;;;16.09;83.62;101516.27;107276;1279;60646;-87
2022/06/10 06:25:17;;;;;;;9.20;5.80;;;;;;;16.15;83.64;101513.54;107368;1279;76195;-87
2022/06/10 06:27:45;;;;;;;9.00;6.60;;;;;;;16.23;83.01;101511.23;107408;1279;72755;-87
2022/06/10 06:30:22;;;;;;;10.10;6.70;;;;;;;16.33;82.94;101507.89;107589;1279;73963;-87
2022/06/10 06:32:49;;;;;;;11.10;8.30;;;;;;;16.44;82.02;101510.05;107717;1279;63111;-86
2022/06/10 06:35:17;;;;;;;8.90;6.20;;;;;;;16.53;81.06;101507.55;107583;1279;61622;-86
2022/06/10 06:37:44;;;;;;;9.70;6.50;;;;;;;16.61;80.22;101515.38;107668;1279;76459;-86
2022/06/10 06:40:12;;;;;;;10.80;6.10;;;;;;;16.71;80.29;101516.67;107362;1279;72676;-87
2022/06/10 06:42:39;;;;;;;13.30;8.00;;;;;;;16.82;79.64;101516.98;107573;1277;74001;-86
2022/06/10 06:45:07;;;;;;;9.30;5.50;;;;;;;16.91;79.25;101512.09;107537;1279;62712;-87
2022/06/10 06:47:54;;;;;;;10.70;7.20;;;;;;;17.02;79.30;101516.56;107855;1279;60967;-87
2022/06/10 06:50:25;;;;;;;8.10;6.30;;;;;;;17.13;79.62;101515.23;107819;1277;74766;-87
2022/06/10 06:52:53;;;;;;;13.10;7.10;;;;;;;17.26;78.90;101515.02;107531;1279;71466;-86
2022/06/10 06:55:26;;;;;;;9.00;5.20;;;;;;;17.36;76.89;101519.77;107473;1279;72164;-86
2022/06/10 06:57:53;;;;;;;12.50;6.30;;;;;;;17.46;76.20;101516.53;107917;1277;62398;-86
2022/06/10 07:00:21;;;;;;;10.10;5.10;;;;;;;17.56;75.77;101514.92;107499;1279;60312;-86
2022/06/10 07:02:48;;;;;;;10.70;6.40;;;;;;;17.66;75.94;101517.02;107635;1279;74963;-86
2022/06/10 07:05:15;;;;;;;10.00;6.40;;;;;;;17.75;75.22;101517.71;107586;1279;72742;-86
2022/06/10 07:07:42;;;;;;;8.70;5.20;;;;;;;17.87;74.30;101520.95;107054;1279;72950;-86
2022/06/10 07:10:12;;;;;;;10.20;6.20;;;;;;;17.98;72.98;101518.70;107611;1279;63504;-85
2022/06/10 07:12:39;;;;;;;9.50;5.00;;;;;;;18.07;72.94;101515.70;107411;1279;60573;-86
2022/06/10 07:15:08;;;;;;;10.80;3.70;;;;;;;18.16;71.13;101515.67;107364;1279;74586;-86
2022/06/10 07:17:35;;;;;;;6.30;3.20;;;;;;;18.21;69.67;101511.25;107657;1277;72762;-86
2022/06/10 07:20:03;;;;;;;10.90;3.00;;;;;;;18.32;68.44;101516.88;107991;1278;73142;-86
2022/06/10 07:22:31;;;;;;;4.60;2.50;;;;;;;18.40;67.02;101511.46;107360;1280;62964;-87
2022/06/10 07:24:58;;;;;;;6.60;2.60;;;;;;;18.49;66.47;101515.23;107395;1279;60669;-86
2022/06/10 07:27:25;;;;;;;7.60;3.70;;;;;;;18.55;62.88;101516.00;107410;1279;75341;-86
2022/06/10 07:30:03;;;;;;;8.60;3.70;;;;;;;18.57;61.65;101515.63;107826;1277;71701;-86
2022/06/10 07:32:31;;;;;;;5.80;3.10;;;;;;;18.63;62.00;101518.84;107689;1279;73024;-86
2022/06/10 07:34:58;;;;;;;6.90;2.20;;;;;;;18.71;60.90;101523.60;107168;1279;60375;-86
2022/06/10 07:37:25;;;;;;;5.00;2.20;;;;;;;18.78;59.14;101524.84;107825;1279;60377;-87
2022/06/10 07:39:52;;;;;;;6.50;2.90;;;;;;;18.85;60.31;101524.56;107683;1279;75085;-87
2022/06/10 07:42:20;;;;;;;8.10;3.90;;;;;;;18.91;61.38;101522.20;107704;1279;72620;-87
2022/06/10 07:44:47;;;;;;;8.60;2.70;;;;;;;18.97;61.94;101521.27;107545;1279;74185;-87
2022/06/10 07:47:15;;;;;;;4.10;2.20;;;;;;;19.08;62.08;101520.73;107675;1278;61647;-87
2022/06/10 07:49:43;;;;;;;7.20;3.70;;;;;;;19.20;62.26;101523.52;107306;1277;60306;-87
2022/06/10 07:52:10;;;;;;;8.50;2.80;;;;;;;19.24;62.39;101520.85;107708;1279;75979;-86
2022/06/10 07:54:37;;;;;;;8.10;3.50;;;;;;;19.26;61.36;101527.21;107371;1279;71733;-86
2022/06/10 07:57:07;;;;;;;6.20;2.90;;;;;;;19.30;61.31;101519.11;107140;1279;74020;-86
2022/06/10 07:59:34;;;;;;;6.50;3.70;;;;;;;19.33;61.48;101520.86;107599;1278;62023;-87
2022/06/10 08:02:03;;;;;;;6.20;2.80;;;;;;;19.40;60.59;101516.61;107218;1279;60283;-86
2022/06/10 08:04:30;;;;;;;6.90;2.70;;;;;;;19.51;60.37;101522.33;107877;1277;76049;-86
2022/06/10 08:06:57;;;;;;;7.00;2.90;;;;;;;19.63;60.79;101516.89;107575;1277;71807;-87
2022/06/10 08:09:25;;;;;;;5.50;1.60;;;;;;;19.72;58.96;101515.33;107212;1279;73064;-86
2022/06/10 08:11:52;;;;;;;7.90;1.80;;;;;;;19.75;56.07;101516.31;107329;1279;61176;-87
2022/06/10 08:14:20;;;;;;;4.20;1.20;;;;;;;19.80;53.95;101519.14;107413;1279;61672;-87
2022/06/10 08:16:47;;;;;;;4.80;1.30;;;;;;;19.85;49.90;101517.04;107379;1279;76538;-87
2022/06/10 08:19:14;;;;;;;6.40;2.20;;;;;;;19.96;50.35;101518.67;107218;1279;71360;-87
2022/06/10 08:24:28;;;;;;;4.90;1.40;;;;;;;20.20;50.84;101512.82;107845;1279;60728;-86
2022/06/10 08:26:55;;;;;;;8.50;2.50;;;;;;;20.34;50.54;101507.32;107604;1279;60585;-87
2022/06/10 08:29:22;;;;;;;7.30;3.00;;;;;;;20.43;50.18;101509.32;107833;1278;74936;-86
2022/06/10 08:31:49;;;;;;;7.20;3.00;;;;;;;20.49;49.85;101512.59;107682;1277;70516;-87
2022/06/10 08:34:16;;;;;;;12.40;3.50;;;;;;;20.58;50.48;101511.36;107461;1279;73835;-87
2022/06/10 08:36:44;;;;;;;6.50;2.50;;;;;;;20.73;51.30;101514.97;107334;1279;60305;-87
2022/06/10 08:39:11;;;;;;;6.10;2.60;;;;;;;20.88;51.08;101515.14;107718;1279;59975;-87
2022/06/10 08:42:00;;;;;;;7.40;2.20;;;;;;;21.06;51.76;101509.23;107787;1277;76057;-87
2022/06/10 08:44:26;;;;;;;9.20;2.80;;;;;;;21.19;50.02;101509.65;107598;1279;71633;-88
2022/06/10 08:47:11;;;;;;;10.00;2.90;;;;;;;21.27;50.28;101511.56;107058;1279;718602;-87
2022/06/10 08:49:41;;;;;;;7.20;2.80;;;;;;;21.27;48.61;101511.40;107312;1279;61410;-87
2022/06/10 08:52:21;;;;;;;7.20;2.50;;;;;;;21.28;49.18;101504.19;107680;1279;59532;-87
2022/06/10 08:55:14;;;;;;;4.20;1.70;;;;;;;21.25;48.73;101509.01;107396;1279;77246;-87
2022/06/10 08:57:45;;;;;;;6.40;2.10;;;;;;;21.20;48.18;101505.25;107542;1279;72403;-87
2022/06/10 09:00:27;;;;;;;10.00;2.40;;;;;;;21.13;49.43;101506.45;107709;1279;72954;-87
2022/06/10 09:03:07;;;;;;;7.50;2.30;;;;;;;21.05;49.34;101509.77;107936;1279;60575;-87
2022/06/10 09:05:39;;;;;;;8.50;2.30;;;;;;;21.07;49.54;101499.27;107278;1277;61027;-86
2022/06/10 09:08:15;;;;;;;5.80;2.30;;;;;;;21.27;49.69;101500.81;107678;1278;73718;-87
2022/06/10 09:10:55;;;;;;;6.30;1.90;;;;;;;21.57;49.98;101502.20;107460;1279;71515;-87
2022/06/10 09:13:42;;;;;;;5.00;2.00;;;;;;;21.75;46.98;101500.64;108146;1277;74039;-88
2022/06/10 09:16:36;;;;;;;4.30;2.10;;;;;;;21.89;45.64;101502.41;108311;1277;60682;-87
2022/06/10 09:19:20;;;;;;;6.00;1.70;;;;;;;21.86;45.69;101508.77;108068;1279;60621;-87
2022/06/10 09:21:51;;;;;;;6.30;2.00;;;;;;;22.06;45.23;101500.85;108390;1279;74958;-87
2022/06/10 09:24:28;;;;;;;7.20;2.20;;;;;;;22.25;45.27;101497.22;108293;1277;71259;-87
2022/06/10 09:27:26;;;;;;;4.80;1.90;;;;;;;22.49;45.36;101499.06;108328;1277;74967;-86
2022/06/10 09:29:53;;;;;;;7.20;2.20;;;;;;;22.51;44.56;101505.46;108303;1277;60643;-88
2022/06/10 09:32:22;;;;;;;6.00;1.90;;;;;;;22.31;44.73;101501.27;108178;1279;59880;-86
2022/06/10 09:34:57;;;;;;;5.00;1.70;;;;;;;22.20;45.51;101497.48;108107;1279;75539;-86
2022/06/10 09:37:53;;;;;;;4.60;1.40;;;;;;;22.21;45.33;101505.07;108024;1279;71399;-86
2022/06/10 09:40:36;;;;;;;8.00;2.40;;;;;;;22.10;44.96;101503.91;107620;1279;73183;-85
2022/06/10 09:43:13;;;;;;;8.40;1.80;;;;;;;21.96;46.05;101501.39;107764;1279;61048;-86
2022/06/10 09:45:48;;;;;;;5.90;1.50;;;;;;;22.00;46.33;101508.70;107715;1279;61317;-86
2022/06/10 09:48:23;;;;;;;6.10;1.70;;;;;;;22.08;44.97;101506.65;107445;1277;76203;-86
2022/06/10 09:51:25;;;;;;;6.70;1.90;;;;;;;21.95;44.93;101501.05;107743;1279;71540;-87
2022/06/10 09:53:52;;;;;;;5.80;2.10;;;;;;;21.79;46.01;101511.07;107906;1279;74432;-87
2022/06/10 09:56:45;;;;;;;6.60;2.40;;;;;;;21.74;45.95;101503.49;107683;1279;62143;-87
2022/06/10 09:59:17;;;;;;;5.10;1.50;;;;;;;21.95;46.64;101503.86;107821;1279;61259;-86
2022/06/10 10:02:15;;;;;;;4.90;1.90;;;;;;;22.01;46.63;101495.58;107555;1278;74704;-87
2022/06/10 10:05:20;;;;;;;5.00;1.70;;;;;;;22.03;46.44;101492.97;107747;1279;70395;-87
2022/06/10 10:08:16;;;;;;;6.40;1.70;;;;;;;22.00;45.90;101490.43;107766;1277;73133;-87
2022/06/10 10:11:10;;;;;;;6.60;1.30;;;;;;;22.17;45.97;101480.27;107777;1280;62917;-87
2022/06/10 10:14:05;;;;;;;6.40;1.30;;;;;;;22.45;44.82;101480.95;107807;1277;61463;-87
2022/06/10 10:16:44;;;;;;;6.70;2.60;;;;;;;22.59;44.54;101480.95;107331;1279;74760;-88
2022/06/10 10:19:41;;;;;;;8.00;2.20;;;;;;;22.53;44.31;101476.73;107615;1279;72048;-87
2022/06/10 10:22:50;;;;;;;4.60;2.00;;;;;;;22.51;45.11;101476.81;107674;1277;72998;-87
2022/06/10 10:25:21;;;;;;;2.70;1.30;;;;;;;22.62;45.57;101483.98;107743;1278;61157;-87
2022/06/10 10:27:48;;;;;;;3.10;1.20;;;;;;;22.53;45.16;101481.18;107776;1279;60326;-87
2022/06/10 10:30:21;;;;;;;5.50;1.70;;;;;;;22.42;45.37;101479.59;107530;1281;74968;-87
2022/06/10 10:33:04;;;;;;;3.90;1.60;;;;;;;22.30;45.83;101480.95;107792;1277;72599;-87
2022/06/10 10:35:48;;;;;;;6.70;1.50;;;;;;;22.25;45.19;101476.09;107564;1279;73061;-87
2022/06/10 10:38:30;;;;;;;6.90;1.80;;;;;;;22.46;45.70;101473.55;107641;1279;61588;-87
2022/06/10 10:41:17;;;;;;;5.90;1.70;;;;;;;22.82;45.11;101471.38;107854;1279;61735;-88
2022/06/10 10:43:48;;;;;;;4.70;1.70;;;;;;;23.09;44.24;101474.84;107927;1279;74951;-88
2022/06/10 10:46:43;;;;;;;6.80;1.80;;;;;;;23.30;43.60;101467.79;107679;1277;71698;-87
2022/06/10 10:49:31;;;;;;;8.30;1.60;;;;;;;23.44;43.45;101470.01;107793;1277;72941;-88
2022/06/10 10:52:00;;;;;;;3.40;1.10;;;;;;;23.72;44.00;101466.08;107776;1279;61113;-88
2022/06/10 10:54:30;;;;;;;4.20;1.80;;;;;;;23.90;43.00;101470.26;107603;1279;61256;-86
2022/06/10 10:56:58;;;;;;;4.70;1.60;;;;;;;23.89;42.08;101473.44;107791;1278;75718;-88
2022/06/10 10:59:32;;;;;;;6.00;1.80;;;;;;;23.76;42.69;101479.16;107149;1279;72632;-88
2022/06/10 11:02:00;;;;;;;4.00;1.60;;;;;;;23.69;43.50;101474.52;107534;1279;74197;-87
2022/06/10 11:04:31;;;;;;;4.60;1.40;;;;;;;23.59;44.09;101476.13;107566;1279;61193;-88
2022/06/10 11:07:13;;;;;;;5.40;1.30;;;;;;;23.46;42.65;101483.10;107423;1279;61244;-87
2022/06/10 11:10:08;;;;;;;5.00;0.90;;;;;;;23.42;41.57;101484.38;107511;1279;74812;-87
2022/06/10 11:12:35;;;;;;;3.50;1.20;;;;;;;23.38;41.39;101479.05;107499;1279;71279;-87
2022/06/10 11:15:30;;;;;;;5.00;1.30;;;;;;;23.38;41.14;101485.22;107518;1279;73017;-87
2022/06/10 11:17:59;;;;;;;4.40;1.10;;;;;;;23.50;41.39;101483.22;107780;1278;60237;-87
2022/06/10 11:20:30;;;;;;;6.90;1.50;;;;;;;23.67;40.91;101474.98;107638;1279;61308;-88
2022/06/10 11:23:24;;;;;;;5.70;1.60;;;;;;;23.72;41.29;101481.13;107634;1279;73649;-88
2022/06/10 11:26:16;;;;;;;5.10;1.20;;;;;;;23.61;41.96;101476.12;107383;1279;73374;-88
2022/06/10 11:28:44;;;;;;;3.80;1.00;;;;;;;23.41;42.64;101482.45;107698;1279;74391;-87
2022/06/10 11:31:39;;;;;;;5.50;1.60;;;;;;;23.25;43.35;101486.80;107498;1279;61501;-87
2022/06/10 11:34:21;;;;;;;5.10;1.10;;;;;;;23.16;44.54;101479.59;107824;1279;60509;-89
2022/06/10 11:36:53;;;;;;;5.20;1.10;;;;;;;23.10;45.60;101482.83;107711;1279;75680;-87
2022/06/10 11:39:27;;;;;;;2.30;0.80;;;;;;;23.04;45.25;101484.96;107924;1279;71546;-88
2022/06/10 11:41:58;;;;;;;5.50;1.70;;;;;;;22.97;45.17;101489.27;107380;1279;74202;-87
2022/06/10 11:44:29;;;;;;;3.90;1.10;;;;;;;23.03;44.98;101479.80;107723;1277;60146;-87
2022/06/10 11:47:05;;;;;;;5.10;1.20;;;;;;;23.21;45.32;101480.66;107616;1277;60583;-88
2022/06/10 11:49:51;;;;;;;5.20;1.10;;;;;;;23.43;43.97;101480.05;107890;1279;74552;-88
2022/06/10 11:52:37;;;;;;;4.20;1.70;;;;;;;23.64;43.37;101474.64;107537;1279;72582;-87
2022/06/10 11:55:14;;;;;;;5.30;1.30;;;;;;;23.83;43.19;101471.23;107892;1279;74382;-88
2022/06/10 12:00:41;;;;;;;5.50;1.60;;;;;;;23.90;43.15;101470.73;107871;1279;60739;-88